sensor_id;sensor_type;location;lat;lon;timestamp;P1;durP1;ratioP1;P2;durP2;ratioP2
45686;SDS011;31399;51.176;7.776;2022-09-03T00:01:51;0.70;;;0.40;;
45686;SDS011;31399;51.176;7.776;2022-09-03T00:04:24;1.25;;;0.70;;
45686;SDS011;31399;51.176;7.776;2022-09-03T00:06:59;1.33;;;0.60;;
45686;SDS011;31399;51.176;7.776;2022-09-03T00:09:30;4.50;;;0.50;;
45686;SDS011;31399;51.176;7.776;2022-09-03T00:12:01;5.38;;;0.73;;
45686;SDS011;31399;51.176;7.776;2022-09-03T00:14:41;2.40;;;0.55;;
45686;SDS011;31399;51.176;7.776;2022-09-03T00:17:24;1.20;;;0.47;;
45686;SDS011;31399;51.176;7.776;2022-09-03T00:22:27;1.60;;;0.80;;
45686;SDS011;31399;51.176;7.776;2022-09-03T00:24:58;0.82;;;0.60;;
45686;SDS011;31399;51.176;7.776;2022-09-03T00:27:29;0.50;;;0.50;;
45686;SDS011;31399;51.176;7.776;2022-09-03T00:30:05;0.70;;;0.50;;
45686;SDS011;31399;51.176;7.776;2022-09-03T00:32:39;1.40;;;0.70;;
45686;SDS011;31399;51.176;7.776;2022-09-03T00:35:10;1.10;;;0.60;;
45686;SDS011;31399;51.176;7.776;2022-09-03T00:37:42;4.00;;;0.63;;
45686;SDS011;31399;51.176;7.776;2022-09-03T00:40:13;1.08;;;0.55;;
45686;SDS011;31399;51.176;7.776;2022-09-03T00:43:03;1.83;;;0.60;;
45686;SDS011;31399;51.176;7.776;2022-09-03T00:45:40;3.88;;;0.70;;
45686;SDS011;31399;51.176;7.776;2022-09-03T00:48:26;2.30;;;0.40;;
45686;SDS011;31399;51.176;7.776;2022-09-03T00:53:59;0.80;;;0.57;;
45686;SDS011;31399;51.176;7.776;2022-09-03T00:56:50;1.75;;;0.75;;
45686;SDS011;31399;51.176;7.776;2022-09-03T01:15:42;0.70;;;0.60;;
45686;SDS011;31399;51.176;7.776;2022-09-03T01:18:22;3.15;;;0.50;;
45686;SDS011;31399;51.176;7.776;2022-09-03T01:21:05;3.08;;;0.47;;
45686;SDS011;31399;51.176;7.776;2022-09-03T01:23:51;2.70;;;0.73;;
45686;SDS011;31399;51.176;7.776;2022-09-03T01:32:24;1.65;;;0.50;;
45686;SDS011;31399;51.176;7.776;2022-09-03T01:35:13;1.27;;;0.50;;
45686;SDS011;31399;51.176;7.776;2022-09-03T01:37:48;1.55;;;0.60;;
45686;SDS011;31399;51.176;7.776;2022-09-03T01:40:33;1.08;;;0.63;;
45686;SDS011;31399;51.176;7.776;2022-09-03T01:43:23;1.75;;;0.70;;
45686;SDS011;31399;51.176;7.776;2022-09-03T01:46:28;1.80;;;0.50;;
45686;SDS011;31399;51.176;7.776;2022-09-03T01:52:21;2.67;;;1.00;;
45686;SDS011;31399;51.176;7.776;2022-09-03T01:55:17;1.13;;;0.70;;
45686;SDS011;31399;51.176;7.776;2022-09-03T01:58:07;1.30;;;0.60;;
45686;SDS011;31399;51.176;7.776;2022-09-03T02:01:16;2.75;;;0.88;;
45686;SDS011;31399;51.176;7.776;2022-09-03T02:03:50;1.02;;;0.73;;
45686;SDS011;31399;51.176;7.776;2022-09-03T02:06:17;1.10;;;0.60;;
45686;SDS011;31399;51.176;7.776;2022-09-03T02:08:46;3.90;;;0.50;;
45686;SDS011;31399;51.176;7.776;2022-09-03T02:11:12;1.42;;;0.60;;
45686;SDS011;31399;51.176;7.776;2022-09-03T02:16:17;1.30;;;0.60;;
45686;SDS011;31399;51.176;7.776;2022-09-03T02:18:54;2.65;;;0.60;;
45686;SDS011;31399;51.176;7.776;2022-09-03T02:21:22;0.80;;;0.50;;
45686;SDS011;31399;51.176;7.776;2022-09-03T02:23:50;0.50;;;0.50;;
45686;SDS011;31399;51.176;7.776;2022-09-03T02:26:18;1.02;;;0.60;;
45686;SDS011;31399;51.176;7.776;2022-09-03T02:28:46;3.90;;;0.70;;
45686;SDS011;31399;51.176;7.776;2022-09-03T02:31:13;1.30;;;0.47;;
45686;SDS011;31399;51.176;7.776;2022-09-03T02:33:42;1.15;;;0.50;;
45686;SDS011;31399;51.176;7.776;2022-09-03T02:36:10;0.93;;;0.70;;
45686;SDS011;31399;51.176;7.776;2022-09-03T02:38:40;2.72;;;0.63;;
45686;SDS011;31399;51.176;7.776;2022-09-03T02:41:08;1.50;;;0.47;;
45686;SDS011;31399;51.176;7.776;2022-09-03T02:43:40;1.73;;;0.57;;
45686;SDS011;31399;51.176;7.776;2022-09-03T02:46:09;1.00;;;0.50;;
45686;SDS011;31399;51.176;7.776;2022-09-03T02:48:39;0.75;;;0.40;;
45686;SDS011;31399;51.176;7.776;2022-09-03T02:51:06;0.77;;;0.60;;
45686;SDS011;31399;51.176;7.776;2022-09-03T02:53:39;1.30;;;0.60;;
45686;SDS011;31399;51.176;7.776;2022-09-03T02:56:06;1.67;;;0.63;;
45686;SDS011;31399;51.176;7.776;2022-09-03T02:58:32;1.77;;;0.50;;
45686;SDS011;31399;51.176;7.776;2022-09-03T03:01:00;1.63;;;0.60;;
45686;SDS011;31399;51.176;7.776;2022-09-03T03:03:27;0.80;;;0.50;;
45686;SDS011;31399;51.176;7.776;2022-09-03T03:05:54;1.48;;;0.75;;
45686;SDS011;31399;51.176;7.776;2022-09-03T03:08:24;2.22;;;0.52;;
45686;SDS011;31399;51.176;7.776;2022-09-03T03:10:54;0.70;;;0.68;;
45686;SDS011;31399;51.176;7.776;2022-09-03T03:13:25;2.22;;;0.80;;
45686;SDS011;31399;51.176;7.776;2022-09-03T03:16:00;2.22;;;0.60;;
45686;SDS011;31399;51.176;7.776;2022-09-03T03:18:28;1.55;;;0.70;;
45686;SDS011;31399;51.176;7.776;2022-09-03T03:20:55;0.90;;;0.50;;
45686;SDS011;31399;51.176;7.776;2022-09-03T03:23:22;1.50;;;0.90;;
45686;SDS011;31399;51.176;7.776;2022-09-03T03:25:48;1.42;;;0.80;;
45686;SDS011;31399;51.176;7.776;2022-09-03T03:28:15;3.95;;;1.02;;
45686;SDS011;31399;51.176;7.776;2022-09-03T03:30:44;1.05;;;0.88;;
45686;SDS011;31399;51.176;7.776;2022-09-03T03:33:13;1.42;;;0.55;;
45686;SDS011;31399;51.176;7.776;2022-09-03T03:35:40;0.98;;;0.60;;
45686;SDS011;31399;51.176;7.776;2022-09-03T03:38:07;0.95;;;0.55;;
45686;SDS011;31399;51.176;7.776;2022-09-03T03:40:36;2.33;;;0.40;;
45686;SDS011;31399;51.176;7.776;2022-09-03T03:43:03;1.17;;;0.50;;
45686;SDS011;31399;51.176;7.776;2022-09-03T03:45:30;1.25;;;0.50;;
45686;SDS011;31399;51.176;7.776;2022-09-03T03:47:57;3.25;;;0.80;;
45686;SDS011;31399;51.176;7.776;2022-09-03T03:50:24;1.00;;;0.70;;
45686;SDS011;31399;51.176;7.776;2022-09-03T03:52:51;1.30;;;0.85;;
45686;SDS011;31399;51.176;7.776;2022-09-03T03:55:17;0.98;;;0.70;;
45686;SDS011;31399;51.176;7.776;2022-09-03T03:57:45;1.38;;;0.40;;
45686;SDS011;31399;51.176;7.776;2022-09-03T04:00:12;1.98;;;0.50;;
45686;SDS011;31399;51.176;7.776;2022-09-03T04:02:39;1.85;;;0.50;;
45686;SDS011;31399;51.176;7.776;2022-09-03T04:05:06;1.33;;;0.73;;
45686;SDS011;31399;51.176;7.776;2022-09-03T04:07:33;0.88;;;0.40;;
45686;SDS011;31399;51.176;7.776;2022-09-03T04:10:00;5.15;;;0.75;;
45686;SDS011;31399;51.176;7.776;2022-09-03T04:12:26;1.92;;;0.40;;
45686;SDS011;31399;51.176;7.776;2022-09-03T04:14:53;2.30;;;0.57;;
45686;SDS011;31399;51.176;7.776;2022-09-03T04:17:19;1.75;;;0.60;;
45686;SDS011;31399;51.176;7.776;2022-09-03T04:19:50;4.95;;;0.70;;
45686;SDS011;31399;51.176;7.776;2022-09-03T04:22:17;1.00;;;0.50;;
45686;SDS011;31399;51.176;7.776;2022-09-03T04:24:44;0.50;;;0.47;;
45686;SDS011;31399;51.176;7.776;2022-09-03T04:27:11;1.02;;;0.52;;
45686;SDS011;31399;51.176;7.776;2022-09-03T04:29:38;3.30;;;0.75;;
45686;SDS011;31399;51.176;7.776;2022-09-03T04:32:04;0.88;;;0.60;;
45686;SDS011;31399;51.176;7.776;2022-09-03T04:34:49;4.78;;;0.98;;
45686;SDS011;31399;51.176;7.776;2022-09-03T04:37:16;3.85;;;0.65;;
45686;SDS011;31399;51.176;7.776;2022-09-03T04:39:44;0.90;;;0.60;;
45686;SDS011;31399;51.176;7.776;2022-09-03T04:42:11;0.90;;;0.60;;
45686;SDS011;31399;51.176;7.776;2022-09-03T04:44:38;1.17;;;0.70;;
45686;SDS011;31399;51.176;7.776;2022-09-03T04:47:06;4.90;;;0.65;;
45686;SDS011;31399;51.176;7.776;2022-09-03T04:49:33;1.10;;;0.95;;
45686;SDS011;31399;51.176;7.776;2022-09-03T04:52:00;1.45;;;0.50;;
45686;SDS011;31399;51.176;7.776;2022-09-03T04:54:27;1.58;;;0.60;;
45686;SDS011;31399;51.176;7.776;2022-09-03T04:56:55;1.73;;;0.63;;
45686;SDS011;31399;51.176;7.776;2022-09-03T04:59:21;1.25;;;0.57;;
45686;SDS011;31399;51.176;7.776;2022-09-03T05:01:48;0.88;;;0.70;;
45686;SDS011;31399;51.176;7.776;2022-09-03T05:04:15;1.95;;;1.13;;
45686;SDS011;31399;51.176;7.776;2022-09-03T05:06:41;1.25;;;0.90;;
45686;SDS011;31399;51.176;7.776;2022-09-03T05:09:08;1.05;;;0.50;;
45686;SDS011;31399;51.176;7.776;2022-09-03T05:11:35;0.77;;;0.52;;
45686;SDS011;31399;51.176;7.776;2022-09-03T05:14:01;1.40;;;0.75;;
45686;SDS011;31399;51.176;7.776;2022-09-03T05:16:30;1.35;;;0.50;;
45686;SDS011;31399;51.176;7.776;2022-09-03T05:18:58;1.38;;;0.60;;
45686;SDS011;31399;51.176;7.776;2022-09-03T05:21:25;2.20;;;0.60;;
45686;SDS011;31399;51.176;7.776;2022-09-03T05:23:53;0.68;;;0.55;;
45686;SDS011;31399;51.176;7.776;2022-09-03T05:26:23;0.98;;;0.60;;
45686;SDS011;31399;51.176;7.776;2022-09-03T05:28:52;2.40;;;0.60;;
45686;SDS011;31399;51.176;7.776;2022-09-03T05:31:20;1.58;;;0.70;;
45686;SDS011;31399;51.176;7.776;2022-09-03T05:33:49;0.82;;;0.60;;
45686;SDS011;31399;51.176;7.776;2022-09-03T05:36:20;0.82;;;0.57;;
45686;SDS011;31399;51.176;7.776;2022-09-03T05:38:51;0.77;;;0.47;;
45686;SDS011;31399;51.176;7.776;2022-09-03T05:41:21;0.95;;;0.70;;
45686;SDS011;31399;51.176;7.776;2022-09-03T05:43:49;1.33;;;0.40;;
45686;SDS011;31399;51.176;7.776;2022-09-03T05:46:28;1.02;;;0.70;;
45686;SDS011;31399;51.176;7.776;2022-09-03T05:49:01;1.38;;;0.60;;
45686;SDS011;31399;51.176;7.776;2022-09-03T05:51:29;1.70;;;0.60;;
45686;SDS011;31399;51.176;7.776;2022-09-03T05:53:57;0.93;;;0.50;;
45686;SDS011;31399;51.176;7.776;2022-09-03T05:56:24;2.20;;;0.40;;
45686;SDS011;31399;51.176;7.776;2022-09-03T05:58:54;4.25;;;0.60;;
45686;SDS011;31399;51.176;7.776;2022-09-03T06:01:23;1.55;;;0.68;;
45686;SDS011;31399;51.176;7.776;2022-09-03T06:06:21;0.93;;;0.45;;
45686;SDS011;31399;51.176;7.776;2022-09-03T06:08:54;0.55;;;0.52;;
45686;SDS011;31399;51.176;7.776;2022-09-03T06:11:23;1.08;;;0.47;;
45686;SDS011;31399;51.176;7.776;2022-09-03T06:13:55;0.57;;;0.43;;
45686;SDS011;31399;51.176;7.776;2022-09-03T06:16:23;1.17;;;0.60;;
45686;SDS011;31399;51.176;7.776;2022-09-03T06:18:57;2.63;;;0.50;;
45686;SDS011;31399;51.176;7.776;2022-09-03T06:21:27;0.85;;;0.50;;
45686;SDS011;31399;51.176;7.776;2022-09-03T06:23:55;2.25;;;0.50;;
45686;SDS011;31399;51.176;7.776;2022-09-03T06:26:25;2.08;;;0.40;;
45686;SDS011;31399;51.176;7.776;2022-09-03T06:28:54;1.17;;;0.60;;
45686;SDS011;31399;51.176;7.776;2022-09-03T06:31:22;0.80;;;0.50;;
45686;SDS011;31399;51.176;7.776;2022-09-03T06:33:49;3.28;;;0.60;;
45686;SDS011;31399;51.176;7.776;2022-09-03T06:36:18;1.05;;;0.60;;
45686;SDS011;31399;51.176;7.776;2022-09-03T06:38:46;1.60;;;0.40;;
45686;SDS011;31399;51.176;7.776;2022-09-03T06:41:16;3.17;;;0.50;;
45686;SDS011;31399;51.176;7.776;2022-09-03T06:43:57;1.25;;;0.50;;
45686;SDS011;31399;51.176;7.776;2022-09-03T06:46:27;1.98;;;0.50;;
45686;SDS011;31399;51.176;7.776;2022-09-03T06:48:56;0.65;;;0.30;;
45686;SDS011;31399;51.176;7.776;2022-09-03T06:51:23;2.72;;;0.70;;
45686;SDS011;31399;51.176;7.776;2022-09-03T06:53:52;0.88;;;0.43;;
45686;SDS011;31399;51.176;7.776;2022-09-03T06:56:20;2.70;;;0.45;;
45686;SDS011;31399;51.176;7.776;2022-09-03T06:58:58;1.38;;;0.38;;
45686;SDS011;31399;51.176;7.776;2022-09-03T07:01:29;2.47;;;0.55;;
45686;SDS011;31399;51.176;7.776;2022-09-03T07:03:58;3.22;;;0.50;;
45686;SDS011;31399;51.176;7.776;2022-09-03T07:06:30;2.45;;;0.60;;
45686;SDS011;31399;51.176;7.776;2022-09-03T07:08:58;0.65;;;0.40;;
45686;SDS011;31399;51.176;7.776;2022-09-03T07:11:26;1.55;;;0.30;;
45686;SDS011;31399;51.176;7.776;2022-09-03T07:13:54;2.75;;;0.50;;
45686;SDS011;31399;51.176;7.776;2022-09-03T07:16:22;2.05;;;0.50;;
45686;SDS011;31399;51.176;7.776;2022-09-03T07:18:50;2.75;;;0.50;;
45686;SDS011;31399;51.176;7.776;2022-09-03T07:21:18;0.90;;;0.40;;
45686;SDS011;31399;51.176;7.776;2022-09-03T07:23:46;3.90;;;0.30;;
45686;SDS011;31399;51.176;7.776;2022-09-03T07:26:18;0.70;;;0.30;;
45686;SDS011;31399;51.176;7.776;2022-09-03T07:28:48;3.33;;;0.50;;
45686;SDS011;31399;51.176;7.776;2022-09-03T07:31:35;1.42;;;0.40;;
45686;SDS011;31399;51.176;7.776;2022-09-03T07:34:05;0.57;;;0.35;;
45686;SDS011;31399;51.176;7.776;2022-09-03T07:36:45;2.08;;;0.32;;
45686;SDS011;31399;51.176;7.776;2022-09-03T07:39:14;0.93;;;0.40;;
45686;SDS011;31399;51.176;7.776;2022-09-03T07:41:42;2.50;;;0.43;;
45686;SDS011;31399;51.176;7.776;2022-09-03T07:44:11;2.35;;;0.57;;
45686;SDS011;31399;51.176;7.776;2022-09-03T07:46:40;1.55;;;0.40;;
45686;SDS011;31399;51.176;7.776;2022-09-03T07:49:08;1.98;;;0.40;;
45686;SDS011;31399;51.176;7.776;2022-09-03T07:51:36;1.05;;;0.40;;
45686;SDS011;31399;51.176;7.776;2022-09-03T07:54:04;1.27;;;0.55;;
45686;SDS011;31399;51.176;7.776;2022-09-03T07:56:33;3.40;;;0.93;;
45686;SDS011;31399;51.176;7.776;2022-09-03T07:59:01;1.05;;;0.43;;
45686;SDS011;31399;51.176;7.776;2022-09-03T08:01:28;0.82;;;0.40;;
45686;SDS011;31399;51.176;7.776;2022-09-03T08:03:58;0.57;;;0.40;;
45686;SDS011;31399;51.176;7.776;2022-09-03T08:06:26;0.70;;;0.40;;
45686;SDS011;31399;51.176;7.776;2022-09-03T08:08:57;1.25;;;0.50;;
45686;SDS011;31399;51.176;7.776;2022-09-03T08:11:30;2.30;;;0.45;;
45686;SDS011;31399;51.176;7.776;2022-09-03T08:14:09;1.73;;;0.50;;
45686;SDS011;31399;51.176;7.776;2022-09-03T08:16:42;2.13;;;0.55;;
45686;SDS011;31399;51.176;7.776;2022-09-03T08:19:09;0.80;;;0.50;;
45686;SDS011;31399;51.176;7.776;2022-09-03T08:21:38;0.50;;;0.30;;
45686;SDS011;31399;51.176;7.776;2022-09-03T08:24:08;0.80;;;0.40;;
45686;SDS011;31399;51.176;7.776;2022-09-03T08:26:37;1.13;;;0.60;;
45686;SDS011;31399;51.176;7.776;2022-09-03T08:29:05;0.60;;;0.40;;
45686;SDS011;31399;51.176;7.776;2022-09-03T08:31:32;2.58;;;0.50;;
45686;SDS011;31399;51.176;7.776;2022-09-03T08:34:00;0.93;;;0.73;;
45686;SDS011;31399;51.176;7.776;2022-09-03T08:36:30;0.77;;;0.50;;
45686;SDS011;31399;51.176;7.776;2022-09-03T08:38:57;2.50;;;0.50;;
45686;SDS011;31399;51.176;7.776;2022-09-03T08:41:36;0.90;;;0.50;;
45686;SDS011;31399;51.176;7.776;2022-09-03T08:58:00;5.50;;;0.80;;
45686;SDS011;31399;51.176;7.776;2022-09-03T09:00:35;1.17;;;0.60;;
45686;SDS011;31399;51.176;7.776;2022-09-03T09:20:08;3.95;;;1.08;;
45686;SDS011;31399;51.176;7.776;2022-09-03T09:22:39;1.90;;;0.63;;
45686;SDS011;31399;51.176;7.776;2022-09-03T09:25:14;1.50;;;0.75;;
45686;SDS011;31399;51.176;7.776;2022-09-03T09:27:47;1.75;;;0.82;;
45686;SDS011;31399;51.176;7.776;2022-09-03T09:30:18;2.80;;;1.17;;
45686;SDS011;31399;51.176;7.776;2022-09-03T09:32:45;1.05;;;0.75;;
45686;SDS011;31399;51.176;7.776;2022-09-03T09:35:17;2.63;;;0.82;;
45686;SDS011;31399;51.176;7.776;2022-09-03T09:37:51;2.20;;;0.63;;
45686;SDS011;31399;51.176;7.776;2022-09-03T09:40:32;1.20;;;0.75;;
45686;SDS011;31399;51.176;7.776;2022-09-03T09:45:46;1.88;;;0.88;;
45686;SDS011;31399;51.176;7.776;2022-09-03T09:53:38;1.55;;;0.80;;
45686;SDS011;31399;51.176;7.776;2022-09-03T09:56:06;1.70;;;0.77;;
45686;SDS011;31399;51.176;7.776;2022-09-03T09:58:33;4.18;;;0.82;;
45686;SDS011;31399;51.176;7.776;2022-09-03T10:01:05;2.63;;;0.70;;
45686;SDS011;31399;51.176;7.776;2022-09-03T10:03:46;1.30;;;0.73;;
45686;SDS011;31399;51.176;7.776;2022-09-03T10:06:14;1.00;;;0.80;;
45686;SDS011;31399;51.176;7.776;2022-09-03T10:11:34;1.15;;;0.70;;
45686;SDS011;31399;51.176;7.776;2022-09-03T10:14:08;3.17;;;0.63;;
45686;SDS011;31399;51.176;7.776;2022-09-03T10:16:46;1.25;;;0.80;;
45686;SDS011;31399;51.176;7.776;2022-09-03T10:19:28;1.52;;;0.80;;
45686;SDS011;31399;51.176;7.776;2022-09-03T10:22:04;3.55;;;0.40;;
45686;SDS011;31399;51.176;7.776;2022-09-03T10:24:37;6.10;;;0.80;;
45686;SDS011;31399;51.176;7.776;2022-09-03T10:27:12;1.52;;;0.77;;
45686;SDS011;31399;51.176;7.776;2022-09-03T10:29:39;3.28;;;0.57;;
45686;SDS011;31399;51.176;7.776;2022-09-03T10:35:09;2.63;;;0.95;;
45686;SDS011;31399;51.176;7.776;2022-09-03T10:37:43;1.23;;;0.50;;
45686;SDS011;31399;51.176;7.776;2022-09-03T10:40:17;2.17;;;1.10;;
45686;SDS011;31399;51.176;7.776;2022-09-03T10:43:05;1.33;;;0.77;;
45686;SDS011;31399;51.176;7.776;2022-09-03T10:45:47;3.17;;;1.27;;
45686;SDS011;31399;51.176;7.776;2022-09-03T10:48:40;3.67;;;1.20;;
45686;SDS011;31399;51.176;7.776;2022-09-03T10:51:34;1.38;;;0.82;;
45686;SDS011;31399;51.176;7.776;2022-09-03T11:05:55;4.70;;;1.00;;
45686;SDS011;31399;51.176;7.776;2022-09-03T11:13:50;2.90;;;0.77;;
45686;SDS011;31399;51.176;7.776;2022-09-03T11:16:22;1.88;;;0.90;;
45686;SDS011;31399;51.176;7.776;2022-09-03T11:21:40;1.55;;;1.00;;
45686;SDS011;31399;51.176;7.776;2022-09-03T11:24:24;1.15;;;0.75;;
45686;SDS011;31399;51.176;7.776;2022-09-03T11:26:54;3.92;;;1.50;;
45686;SDS011;31399;51.176;7.776;2022-09-03T11:34:59;1.30;;;0.82;;
45686;SDS011;31399;51.176;7.776;2022-09-03T11:37:26;2.83;;;0.90;;
45686;SDS011;31399;51.176;7.776;2022-09-03T11:39:57;1.20;;;0.80;;
45686;SDS011;31399;51.176;7.776;2022-09-03T11:42:38;1.30;;;0.90;;
45686;SDS011;31399;51.176;7.776;2022-09-03T11:47:51;3.08;;;0.90;;
45686;SDS011;31399;51.176;7.776;2022-09-03T11:50:23;1.55;;;1.13;;
45686;SDS011;31399;51.176;7.776;2022-09-03T11:52:52;2.00;;;1.02;;
45686;SDS011;31399;51.176;7.776;2022-09-03T11:55:24;1.77;;;1.05;;
45686;SDS011;31399;51.176;7.776;2022-09-03T11:57:54;2.90;;;0.90;;
45686;SDS011;31399;51.176;7.776;2022-09-03T12:00:20;1.73;;;0.90;;
45686;SDS011;31399;51.176;7.776;2022-09-03T12:02:51;1.80;;;1.02;;
45686;SDS011;31399;51.176;7.776;2022-09-03T12:05:31;1.73;;;1.00;;
45686;SDS011;31399;51.176;7.776;2022-09-03T12:13:28;2.25;;;0.95;;
45686;SDS011;31399;51.176;7.776;2022-09-03T12:18:36;1.70;;;1.05;;
45686;SDS011;31399;51.176;7.776;2022-09-03T12:21:07;5.32;;;1.20;;
45686;SDS011;31399;51.176;7.776;2022-09-03T12:23:41;2.72;;;1.05;;
45686;SDS011;31399;51.176;7.776;2022-09-03T12:26:14;1.40;;;0.98;;
45686;SDS011;31399;51.176;7.776;2022-09-03T12:28:44;2.05;;;0.88;;
45686;SDS011;31399;51.176;7.776;2022-09-03T12:31:21;1.58;;;1.10;;
45686;SDS011;31399;51.176;7.776;2022-09-03T12:33:54;3.17;;;0.90;;
45686;SDS011;31399;51.176;7.776;2022-09-03T12:36:37;2.28;;;1.05;;
45686;SDS011;31399;51.176;7.776;2022-09-03T12:39:09;2.92;;;1.63;;
45686;SDS011;31399;51.176;7.776;2022-09-03T12:41:38;3.42;;;1.40;;
45686;SDS011;31399;51.176;7.776;2022-09-03T12:44:05;3.58;;;1.10;;
45686;SDS011;31399;51.176;7.776;2022-09-03T12:46:31;2.53;;;1.00;;
45686;SDS011;31399;51.176;7.776;2022-09-03T12:49:00;1.83;;;1.45;;
45686;SDS011;31399;51.176;7.776;2022-09-03T12:51:57;1.63;;;1.02;;
45686;SDS011;31399;51.176;7.776;2022-09-03T12:54:31;1.23;;;0.82;;
45686;SDS011;31399;51.176;7.776;2022-09-03T12:56:59;3.15;;;0.85;;
45686;SDS011;31399;51.176;7.776;2022-09-03T12:59:27;1.75;;;0.80;;
45686;SDS011;31399;51.176;7.776;2022-09-03T13:01:57;2.15;;;0.90;;
45686;SDS011;31399;51.176;7.776;2022-09-03T13:04:27;2.10;;;0.65;;
45686;SDS011;31399;51.176;7.776;2022-09-03T13:06:58;2.05;;;0.70;;
45686;SDS011;31399;51.176;7.776;2022-09-03T13:09:29;1.10;;;0.60;;
45686;SDS011;31399;51.176;7.776;2022-09-03T13:11:57;2.03;;;0.70;;
45686;SDS011;31399;51.176;7.776;2022-09-03T13:14:25;1.25;;;0.60;;
45686;SDS011;31399;51.176;7.776;2022-09-03T13:17:04;2.30;;;0.52;;
45686;SDS011;31399;51.176;7.776;2022-09-03T13:22:43;0.65;;;0.50;;
45686;SDS011;31399;51.176;7.776;2022-09-03T13:25:15;1.13;;;0.50;;
45686;SDS011;31399;51.176;7.776;2022-09-03T13:31:07;1.00;;;0.60;;
45686;SDS011;31399;51.176;7.776;2022-09-03T13:38:36;0.65;;;0.32;;
45686;SDS011;31399;51.176;7.776;2022-09-03T13:41:11;0.90;;;0.60;;
45686;SDS011;31399;51.176;7.776;2022-09-03T13:43:51;0.60;;;0.40;;
45686;SDS011;31399;51.176;7.776;2022-09-03T13:46:30;4.13;;;0.95;;
45686;SDS011;31399;51.176;7.776;2022-09-03T13:49:06;1.10;;;0.60;;
45686;SDS011;31399;51.176;7.776;2022-09-03T13:51:59;1.60;;;0.40;;
45686;SDS011;31399;51.176;7.776;2022-09-03T13:54:30;0.80;;;0.55;;
45686;SDS011;31399;51.176;7.776;2022-09-03T14:02:44;1.58;;;0.90;;
45686;SDS011;31399;51.176;7.776;2022-09-03T14:21:33;2.45;;;0.70;;
45686;SDS011;31399;51.176;7.776;2022-09-03T14:24:23;1.73;;;0.73;;
45686;SDS011;31399;51.176;7.776;2022-09-03T14:26:57;2.22;;;0.93;;
45686;SDS011;31399;51.176;7.776;2022-09-03T14:29:29;4.45;;;0.77;;
45686;SDS011;31399;51.176;7.776;2022-09-03T14:40:17;1.75;;;0.70;;
45686;SDS011;31399;51.176;7.776;2022-09-03T14:45:57;2.45;;;0.90;;
45686;SDS011;31399;51.176;7.776;2022-09-03T14:57:07;1.85;;;0.90;;
45686;SDS011;31399;51.176;7.776;2022-09-03T14:59:54;1.65;;;0.93;;
45686;SDS011;31399;51.176;7.776;2022-09-03T15:07:55;1.33;;;0.88;;
45686;SDS011;31399;51.176;7.776;2022-09-03T15:12:58;1.17;;;0.88;;
45686;SDS011;31399;51.176;7.776;2022-09-03T15:15:35;4.65;;;0.85;;
45686;SDS011;31399;51.176;7.776;2022-09-03T15:21:43;1.40;;;0.82;;
45686;SDS011;31399;51.176;7.776;2022-09-03T15:29:38;2.22;;;1.20;;
45686;SDS011;31399;51.176;7.776;2022-09-03T15:37:26;2.95;;;0.70;;
45686;SDS011;31399;51.176;7.776;2022-09-03T15:40:00;1.95;;;0.75;;
45686;SDS011;31399;51.176;7.776;2022-09-03T15:42:30;2.20;;;0.90;;
45686;SDS011;31399;51.176;7.776;2022-09-03T15:45:13;2.22;;;0.90;;
45686;SDS011;31399;51.176;7.776;2022-09-03T15:55:42;2.75;;;0.80;;
45686;SDS011;31399;51.176;7.776;2022-09-03T16:01:05;1.20;;;0.80;;
45686;SDS011;31399;51.176;7.776;2022-09-03T16:09:35;1.00;;;0.77;;
45686;SDS011;31399;51.176;7.776;2022-09-03T16:15:02;1.00;;;0.90;;
45686;SDS011;31399;51.176;7.776;2022-09-03T16:17:35;1.48;;;0.60;;
45686;SDS011;31399;51.176;7.776;2022-09-03T16:20:06;3.42;;;0.73;;
45686;SDS011;31399;51.176;7.776;2022-09-03T16:25:34;0.95;;;0.85;;
45686;SDS011;31399;51.176;7.776;2022-09-03T16:31:56;1.60;;;0.82;;
45686;SDS011;31399;51.176;7.776;2022-09-03T16:34:48;2.80;;;0.75;;
45686;SDS011;31399;51.176;7.776;2022-09-03T16:45:24;2.85;;;0.82;;
45686;SDS011;31399;51.176;7.776;2022-09-03T16:53:29;1.20;;;0.85;;
45686;SDS011;31399;51.176;7.776;2022-09-03T17:06:59;0.98;;;0.70;;
45686;SDS011;31399;51.176;7.776;2022-09-03T17:20:43;4.03;;;1.20;;
45686;SDS011;31399;51.176;7.776;2022-09-03T17:26:10;2.65;;;1.00;;
45686;SDS011;31399;51.176;7.776;2022-09-03T17:36:56;3.10;;;1.20;;
45686;SDS011;31399;51.176;7.776;2022-09-03T17:51:04;2.33;;;0.80;;
45686;SDS011;31399;51.176;7.776;2022-09-03T17:53:36;1.40;;;0.90;;
45686;SDS011;31399;51.176;7.776;2022-09-03T17:56:10;2.42;;;1.23;;
45686;SDS011;31399;51.176;7.776;2022-09-03T17:59:01;1.02;;;0.77;;
45686;SDS011;31399;51.176;7.776;2022-09-03T18:01:32;1.25;;;0.95;;
45686;SDS011;31399;51.176;7.776;2022-09-03T18:06:52;3.65;;;1.02;;
45686;SDS011;31399;51.176;7.776;2022-09-03T18:10:00;1.45;;;0.98;;
45686;SDS011;31399;51.176;7.776;2022-09-03T18:15:24;1.35;;;0.75;;
45686;SDS011;31399;51.176;7.776;2022-09-03T18:17:57;1.13;;;0.80;;
45686;SDS011;31399;51.176;7.776;2022-09-03T18:20:29;1.42;;;0.88;;
45686;SDS011;31399;51.176;7.776;2022-09-03T18:26:44;2.05;;;0.90;;
45686;SDS011;31399;51.176;7.776;2022-09-03T18:29:38;2.28;;;1.00;;
45686;SDS011;31399;51.176;7.776;2022-09-03T18:32:29;5.00;;;1.10;;
45686;SDS011;31399;51.176;7.776;2022-09-03T18:35:14;3.33;;;0.70;;
45686;SDS011;31399;51.176;7.776;2022-09-03T18:38:03;2.17;;;1.17;;
45686;SDS011;31399;51.176;7.776;2022-09-03T18:40:51;1.38;;;1.02;;
45686;SDS011;31399;51.176;7.776;2022-09-03T18:53:11;1.60;;;0.80;;
45686;SDS011;31399;51.176;7.776;2022-09-03T18:56:07;1.27;;;0.90;;
45686;SDS011;31399;51.176;7.776;2022-09-03T19:02:06;1.20;;;1.10;;
45686;SDS011;31399;51.176;7.776;2022-09-03T19:21:35;1.40;;;1.30;;
45686;SDS011;31399;51.176;7.776;2022-09-03T19:24:25;3.13;;;1.20;;
45686;SDS011;31399;51.176;7.776;2022-09-03T19:30:27;1.13;;;1.02;;
45686;SDS011;31399;51.176;7.776;2022-09-03T19:42:06;1.50;;;1.40;;
45686;SDS011;31399;51.176;7.776;2022-09-03T19:50:36;3.38;;;1.10;;
45686;SDS011;31399;51.176;7.776;2022-09-03T19:53:25;1.25;;;1.15;;
45686;SDS011;31399;51.176;7.776;2022-09-03T19:56:14;3.72;;;1.15;;
45686;SDS011;31399;51.176;7.776;2022-09-03T19:59:06;1.55;;;1.08;;
45686;SDS011;31399;51.176;7.776;2022-09-03T20:01:57;2.53;;;1.30;;
45686;SDS011;31399;51.176;7.776;2022-09-03T20:04:44;2.38;;;1.50;;
45686;SDS011;31399;51.176;7.776;2022-09-03T20:07:31;2.78;;;1.05;;
45686;SDS011;31399;51.176;7.776;2022-09-03T20:10:18;1.67;;;1.08;;
45686;SDS011;31399;51.176;7.776;2022-09-03T20:12:51;2.10;;;1.10;;
45686;SDS011;31399;51.176;7.776;2022-09-03T20:15:20;1.88;;;1.13;;
45686;SDS011;31399;51.176;7.776;2022-09-03T20:23:07;1.60;;;1.15;;
45686;SDS011;31399;51.176;7.776;2022-09-03T20:25:43;1.45;;;1.10;;
45686;SDS011;31399;51.176;7.776;2022-09-03T20:31:30;1.90;;;1.15;;
45686;SDS011;31399;51.176;7.776;2022-09-03T20:37:07;1.98;;;1.17;;
45686;SDS011;31399;51.176;7.776;2022-09-03T20:47:56;0.95;;;0.80;;
45686;SDS011;31399;51.176;7.776;2022-09-03T20:50:35;4.25;;;1.30;;
45686;SDS011;31399;51.176;7.776;2022-09-03T20:56:12;2.35;;;0.93;;
45686;SDS011;31399;51.176;7.776;2022-09-03T21:06:54;0.70;;;0.60;;
45686;SDS011;31399;51.176;7.776;2022-09-03T21:12:23;1.83;;;1.10;;
45686;SDS011;31399;51.176;7.776;2022-09-03T21:15:28;2.72;;;1.10;;
45686;SDS011;31399;51.176;7.776;2022-09-03T21:20:42;1.10;;;1.00;;
45686;SDS011;31399;51.176;7.776;2022-09-03T21:25:49;2.22;;;0.80;;
45686;SDS011;31399;51.176;7.776;2022-09-03T21:28:31;1.90;;;1.08;;
45686;SDS011;31399;51.176;7.776;2022-09-03T21:31:09;1.00;;;0.80;;
45686;SDS011;31399;51.176;7.776;2022-09-03T21:33:43;1.65;;;0.93;;
45686;SDS011;31399;51.176;7.776;2022-09-03T21:38:46;1.50;;;1.30;;
45686;SDS011;31399;51.176;7.776;2022-09-03T21:42:02;1.30;;;1.08;;